Latest Weather Observations for Ernabella/Pukatja

IDS60801

Issued at 8:31 pm CST Saturday 23 July 2016 (issued every 30 minutes, with the page automatically refreshed every 10 minutes)

About weather observations | Map of weather stations | Latest weather observations for SA | Other Formats
Station Details ID: 016097 Name: PUKATJA Lat: -26.26 Lon: 132.18 Height: 703.2 m
Data from the previous 72 hours. | See also: Recent months at Ernabella/Pukatja
Date/Time
CST
Temp
°C
App
Temp
°C
Dew
Point
°C
Rel
Hum
%
Delta-T
°C
Wind Press
QNH
hPa
Press
MSL
hPa
Rain since
9am
mm
Dir  Spd
km/h
Gust
km/h
Spd
kts
Gust
kts
23/08:30pm 13.4 9.1 0.8 42 5.5 NW 13 19 7 10 1018.3 - 0.0
23/08:00pm 13.6 10.5 1.3 43 5.5 W 7 13 4 7 1018.9 - 0.0
23/07:30pm 13.6 9.7 1.3 43 5.5 NNW 11 15 6 8 1018.7 - 0.0
23/07:00pm 13.6 9.3 0.9 42 5.6 N 13 19 7 10 1018.5 - 0.0
23/06:30pm 13.7 9.4 0.7 41 5.7 N 13 17 7 9 1018.2 - 0.0
23/06:00pm 14.5 9.8 0.7 39 6.1 NNW 15 20 8 11 1018.7 1018.2 0.0
23/05:30pm 15.2 10.4 0.2 36 6.6 N 15 19 8 10 1018.1 - 0.0
23/05:00pm 15.6 11.2 0.6 36 6.7 NNW 13 19 7 10 1017.9 - 0.0
23/04:30pm 16.4 12.3 0.1 33 7.3 NW 11 17 6 9 1017.8 - 0.0
23/04:00pm 15.9 11.0 -0.3 33 7.1 NNE 15 24 8 13 1017.5 - 0.0
23/03:30pm 16.5 11.3 0.2 33 7.3 N 17 24 9 13 1017.8 - 0.0
23/03:00pm 16.2 11.8 0.3 34 7.1 NE 13 20 7 11 1018.5 1018.0 0.0
23/02:30pm 15.5 10.7 0.1 35 6.8 E 15 22 8 12 1018.9 - 0.0
23/02:00pm 15.2 11.9 0.2 36 6.6 N 7 11 4 6 1019.7 - 0.0
23/01:30pm 13.6 9.8 -0.4 38 6.0 N 9 17 5 9 1020.1 - 0.0
23/01:00pm 13.7 10.3 -0.3 38 6.0 NNW 7 17 4 9 1020.6 - 0.0
23/12:30pm 13.3 9.6 0.0 40 5.8 SE 9 15 5 8 1021.1 - 0.0
23/12:00pm 12.5 9.1 -0.4 41 5.5 E 7 13 4 7 1021.6 1021.1 0.0
23/11:30am 11.3 7.6 -0.2 45 4.9 WSW 9 13 5 7 1022.5 - 0.0
23/11:00am 11.5 7.4 -0.3 44 5.0 SSE 11 15 6 8 1022.8 - 0.0
23/10:30am 10.7 6.1 -0.7 45 4.7 S 13 17 7 9 1022.7 - 0.0
23/10:00am 9.9 6.5 -0.9 47 4.4 SSW 7 15 4 8 1022.5 - 0.0
23/09:30am 9.8 5.2 -1.0 47 4.4 SSE 13 17 7 9 1022.3 - 0.0
23/09:00am 8.7 4.1 -0.9 51 3.9 S 13 19 7 10 1022.2 1021.8 0.0
23/08:30am 8.3 3.4 -0.7 53 3.7 SSW 15 20 8 11 1022.3 - 0.0
23/08:00am 7.9 2.9 -1.1 53 3.6 S 15 20 8 11 1021.7 - 0.0
23/07:30am 7.8 2.1 -0.9 54 3.5 S 19 28 10 15 1021.4 - 0.0
23/07:00am 7.9 2.2 -0.8 54 3.5 S 19 28 10 15 1021.1 - 0.0
23/06:30am 7.8 3.3 -0.2 57 3.3 SSW 13 20 7 11 1020.9 - 0.0
23/06:00am 8.1 3.2 -0.6 54 3.5 SSW 15 20 8 11 1020.5 1020.0 0.0
23/05:30am 8.5 3.6 -0.8 52 3.8 S 15 22 8 12 1020.4 - 0.0
23/05:00am 8.9 3.2 -0.7 51 3.9 S 19 28 10 15 1020.1 - 0.0
23/04:30am 9.2 4.0 -0.1 52 3.9 SSW 17 24 9 13 1020.4 - 0.0
23/04:00am 9.9 4.1 -0.3 49 4.2 SSW 20 30 11 16 1019.8 - 0.0
23/03:30am 10.2 4.0 -0.6 47 4.5 SSW 22 35 12 19 1020.1 - 0.0
23/03:00am 10.6 3.6 -0.2 47 4.5 S 26 37 14 20 1019.6 1019.2 0.0
23/02:30am 10.9 5.1 -0.2 46 4.7 S 20 33 11 18 1020.4 - 0.0
23/02:00am 11.6 6.0 0.1 45 4.9 S 19 26 10 14 1019.9 - 0.0
23/01:30am 12.5 6.3 0.0 42 5.4 S 22 37 12 20 1019.8 - 0.0
23/01:00am 12.8 6.6 -0.1 41 5.6 SSW 22 32 12 17 1019.5 - 0.0
23/12:30am 13.6 6.6 -0.4 38 6.0 SSW 26 41 14 22 1019.7 - 0.0
23/12:00am 13.8 8.4 -1.0 36 6.3 SSW 17 26 9 14 1019.0 1018.5 0.0
 
Date/Time
CST
Temp
°C
App
Temp
°C
Dew
Point
°C
Rel
Hum
%
Delta-T
°C
Wind Press
QNH
hPa
Press
MSL
hPa
Rain since
9am
mm
Dir  Spd
km/h
Gust
km/h
Spd
kts
Gust
kts
22/11:30pm 13.9 7.7 -0.5 37 6.2 SW 22 33 12 18 1019.4 - 0.0
22/11:00pm 14.1 6.6 1.4 42 5.7 SW 30 35 16 19 1019.3 - 0.0
22/10:30pm 14.4 7.8 2.0 43 5.7 SW 26 33 14 18 1019.3 - 0.0
22/10:00pm 14.5 7.1 2.1 43 5.7 SW 30 41 16 22 1019.3 - 0.0
22/09:30pm 14.6 8.8 2.5 44 5.6 WSW 22 28 12 15 1019.2 - 0.0
22/09:00pm 15.1 9.9 2.3 42 5.9 SW 19 24 10 13 1019.1 1018.6 0.0
22/08:30pm 15.6 9.3 1.3 38 6.5 SW 24 32 13 17 1018.7 - 0.0
22/08:00pm 15.9 9.5 1.2 37 6.7 SW 24 32 13 17 1018.3 - 0.0
22/07:30pm 16.3 10.1 2.0 38 6.6 SSW 24 30 13 16 1017.9 - 0.0
22/07:00pm 16.5 10.7 2.2 38 6.7 SW 22 30 12 16 1017.4 - 0.0
22/06:30pm 17.0 10.0 1.8 36 7.1 SW 28 35 15 19 1017.1 - 0.0
22/06:00pm 17.9 10.8 1.4 33 7.7 SW 28 37 15 20 1016.8 1016.3 0.0
22/05:30pm 19.3 12.1 0.4 28 8.7 SW 28 35 15 19 1016.4 - 0.0
22/05:00pm 19.9 12.7 0.9 28 8.9 SW 28 35 15 19 1016.3 - 0.0
22/04:30pm 21.6 14.1 1.3 26 9.7 SW 30 37 16 20 1016.3 - 0.0
22/04:00pm 22.0 15.0 2.2 27 9.6 WSW 28 33 15 18 1016.2 - 0.0
22/03:30pm 21.8 14.4 2.0 27 9.6 WSW 30 41 16 22 1016.0 - 0.0
22/03:02pm 21.7 14.9 2.9 29 9.2 SW 28 46 15 25 1016.2 - 0.0
22/03:00pm 21.7 14.5 2.9 29 9.2 SW 30 46 16 25 1016.2 1015.7 0.0
22/02:57pm 21.3 14.4 2.6 29 9.1 SW 28 46 15 25 1016.3 - 0.0
22/02:30pm 21.4 14.5 2.6 29 9.2 WSW 28 39 15 21 1016.4 - 0.0
22/02:00pm 20.7 14.3 3.4 32 8.5 SW 26 37 14 20 1016.6 - 0.0
22/01:30pm 20.5 13.5 4.1 34 8.2 SW 30 43 16 23 1017.1 - 0.0
22/01:00pm 20.7 13.6 5.5 37 7.8 SW 32 43 17 23 1017.1 - 0.0
22/12:30pm 20.0 13.2 4.9 37 7.6 SW 30 39 16 21 1017.5 - 0.0
22/12:00pm 20.6 13.9 5.8 38 7.6 SW 30 39 16 21 1017.4 1016.9 0.0
22/11:30am 19.8 13.1 5.5 39 7.3 SW 30 39 16 21 1017.7 - 0.0
22/11:00am 19.5 12.9 5.9 41 7.0 SW 30 41 16 22 1017.7 - 0.0
22/10:30am 19.1 12.5 5.9 42 6.8 WSW 30 41 16 22 1017.9 - 0.0
22/10:00am 18.4 11.9 6.6 46 6.1 SW 30 39 16 21 1017.7 - 0.0
22/09:30am 18.0 13.1 7.1 49 5.7 WSW 22 30 12 16 1017.5 - 0.0
22/09:00am 17.3 14.0 7.9 54 4.9 SW 15 22 8 12 1017.4 1016.9 0.0
22/08:30am 16.5 12.4 8.0 57 4.5 SW 19 24 10 13 1017.2 - 0.0
22/08:00am 16.2 11.2 7.9 58 4.3 SW 24 39 13 21 1017.2 - 0.0
22/07:30am 16.3 11.3 8.0 58 4.3 SW 24 35 13 19 1017.0 - 0.0
22/07:00am 16.7 12.6 7.9 56 4.6 WSW 19 28 10 15 1016.6 - 0.0
22/06:30am 16.9 14.4 8.1 56 4.6 WSW 11 17 6 9 1016.3 - 0.0
22/06:00am 17.8 14.5 8.1 53 5.1 W 15 20 8 11 1015.9 1015.4 0.0
22/05:30am 15.4 13.3 6.7 56 4.4 WSW 7 9 4 5 1015.6 - 0.0
22/05:00am 18.0 14.3 6.5 47 5.9 W 15 20 8 11 1015.5 - 0.0
22/04:30am 17.6 14.5 7.4 51 5.3 W 13 20 7 11 1015.5 - 0.0
22/04:00am 15.5 13.1 6.8 56 4.4 WSW 9 13 5 7 1015.3 - 0.0
22/03:30am 15.5 13.2 7.5 59 4.1 SW 9 13 5 7 1015.6 - 0.0
22/03:00am 17.9 14.9 7.6 51 5.4 WNW 13 17 7 9 1015.6 1015.0 0.0
22/02:30am 17.5 15.0 8.1 54 5.0 WNW 11 17 6 9 1015.8 - 0.0
22/02:00am 17.4 15.8 8.0 54 5.0 SW 6 9 3 5 1016.0 - 0.0
22/01:30am 18.8 15.9 8.2 50 5.7 NW 13 17 7 9 1016.2 - 0.0
22/01:00am 19.2 16.3 8.2 49 5.9 NW 13 19 7 10 1016.4 - 0.0
22/12:30am 19.2 15.6 8.2 49 5.9 WNW 17 20 9 11 1016.5 - 0.0
22/12:00am 18.6 15.3 8.0 50 5.6 WNW 15 19 8 10 1016.5 1016.0 0.0
 
Date/Time
CST
Temp
°C
App
Temp
°C
Dew
Point
°C
Rel
Hum
%
Delta-T
°C
Wind Press
QNH
hPa
Press
MSL
hPa
Rain since
9am
mm
Dir  Spd
km/h
Gust
km/h
Spd
kts
Gust
kts
21/11:30pm 18.6 15.3 8.0 50 5.6 WNW 15 19 8 10 1016.7 - 0.0
21/11:00pm 18.9 15.6 8.0 49 5.8 WNW 15 17 8 9 1017.0 - 0.0
21/10:30pm 20.2 16.1 7.9 45 6.6 WNW 19 24 10 13 1016.8 - 0.0
21/10:00pm 19.0 15.7 8.1 49 5.8 W 15 20 8 11 1016.8 - 0.0
21/09:30pm 20.6 16.5 7.9 44 6.8 NW 19 22 10 12 1016.5 - 0.0
21/09:00pm 21.1 17.3 7.7 42 7.2 NW 17 22 9 12 1016.4 1015.9 0.0
21/08:30pm 21.0 17.7 8.0 43 7.0 NW 15 22 8 12 1016.2 - 0.0
21/08:00pm 22.0 17.9 7.8 40 7.7 NW 19 28 10 15 1016.0 - 0.0
21/07:30pm 21.9 18.2 8.1 41 7.5 NW 17 26 9 14 1015.7 - 0.0
21/07:00pm 21.4 17.8 8.3 43 7.1 NNW 17 22 9 12 1015.0 - 0.0
21/06:30pm 22.4 18.3 7.8 39 7.9 NNW 19 28 10 15 1014.6 - 0.0
21/06:00pm 23.1 18.9 7.6 37 8.4 NW 19 26 10 14 1014.5 1013.9 0.0
21/05:30pm 24.2 19.1 7.8 35 9.0 NW 24 35 13 19 1014.6 - 0.0
21/05:00pm 24.7 20.1 8.2 35 9.1 NW 22 35 12 19 1014.6 - 0.0
21/04:30pm 25.2 20.1 7.8 33 9.6 NW 24 35 13 19 1014.6 - 0.0
21/04:00pm 25.4 20.0 8.0 33 9.6 WNW 26 39 14 21 1014.8 - 0.0
21/03:30pm 24.8 18.7 8.3 35 9.1 WNW 30 41 16 22 1015.1 - 0.0
21/03:00pm 25.1 19.7 8.1 34 9.4 WNW 26 37 14 20 1015.2 1014.7 0.0
21/02:30pm 24.5 18.1 8.5 36 8.9 NW 32 43 17 23 1015.6 - 0.0
21/02:00pm 24.6 19.3 8.5 36 8.9 WNW 26 39 14 21 1016.0 - 0.0
21/01:30pm 24.4 20.4 8.4 36 8.8 NNW 19 33 10 18 1016.6 - 0.0
21/01:00pm 23.7 19.8 9.3 40 8.1 WNW 20 35 11 19 1017.4 - 0.0
21/12:30pm 23.5 19.5 9.1 40 8.0 NW 20 32 11 17 1017.8 - 0.0
21/12:00pm 23.1 19.4 9.5 42 7.6 WNW 19 30 10 16 1018.2 1017.7 0.0
21/11:30am 22.3 18.5 9.1 43 7.3 NW 19 28 10 15 1018.5 - 0.0
21/11:00am 22.3 18.6 9.5 44 7.1 NNW 19 28 10 15 1018.7 - 0.0
21/10:30am 21.7 19.2 9.6 46 6.7 N 13 22 7 12 1018.8 - 0.0
21/10:00am 20.4 16.8 9.9 51 5.8 N 19 28 10 15 1018.9 - 0.0
21/09:30am 19.6 17.4 10.9 57 4.9 N 13 20 7 11 1018.6 - 0.0
21/09:00am 18.3 15.3 10.7 61 4.2 N 17 30 9 16 1018.5 1018.0 0.0
21/08:30am 17.2 13.3 10.8 66 3.6 N 22 33 12 18 1018.3 - 0.0
21/08:00am 15.9 12.4 10.9 72 2.8 NNW 20 30 11 16 1017.8 - 0.0
21/07:30am 14.3 11.6 10.5 78 2.1 NNW 15 19 8 10 1017.6 - 0.0
21/07:00am 14.3 10.8 10.3 77 2.2 NNW 19 20 10 11 1017.3 - 0.0
21/06:30am 13.0 9.8 10.0 82 1.6 N 17 19 9 10 1017.2 - 0.0
21/06:00am 13.6 10.5 10.2 80 1.8 N 17 20 9 11 1016.7 1016.2 0.0
21/05:30am 13.5 10.8 10.5 82 1.6 NNW 15 19 8 10 1016.7 - 0.0
21/05:00am 13.4 10.8 10.6 83 1.5 N 15 17 8 9 1016.7 - 0.0
21/04:30am 12.4 11.1 10.0 85 1.3 NNE 7 7 4 4 1016.8 - 0.0
21/04:00am 12.1 10.8 9.8 86 1.2 NE 7 9 4 5 1017.1 - 0.0
21/03:30am 11.3 9.1 9.4 88 1.0 NNE 11 13 6 7 1017.3 - 0.0
21/03:00am 12.1 10.0 9.8 86 1.2 NNE 11 13 6 7 1017.5 1017.0 0.0
21/02:30am 12.2 10.0 9.2 82 1.6 NNE 11 13 6 7 1017.8 - 0.0
21/02:00am 12.6 10.5 9.6 82 1.6 NE 11 13 6 7 1018.2 - 0.0
21/01:30am 9.4 7.6 8.0 91 0.7 NE 7 9 4 5 1018.6 - 0.0
21/01:00am 9.2 6.9 7.5 89 0.8 E 9 11 5 6 1018.8 - 0.0
21/12:30am 9.6 7.8 7.9 89 0.8 E 7 9 4 5 1018.9 - 0.0
21/12:00am 10.2 8.0 7.8 85 1.2 E 9 11 5 6 1019.0 1018.5 0.0
 
Date/Time
CST
Temp
°C
App
Temp
°C
Dew
Point
°C
Rel
Hum
%
Delta-T
°C
Wind Press
QNH
hPa
Press
MSL
hPa
Rain since
9am
mm
Dir  Spd
km/h
Gust
km/h
Spd
kts
Gust
kts
20/11:30pm 11.5 9.3 9.2 86 1.2 E 11 13 6 7 1019.2 - 0.0
20/11:00pm 11.8 11.7 9.5 86 1.2 CALM 0 0 0 0 1019.3 - 0.0
20/10:30pm 11.4 11.1 8.6 83 1.4 CALM 0 0 0 0 1019.3 - 0.0
20/10:00pm 11.7 11.4 8.7 82 1.5 CALM 0 0 0 0 1019.3 - 0.0
20/09:30pm 12.5 11.1 9.0 79 1.8 ENE 6 6 3 3 1019.3 - 0.0
20/09:00pm 13.2 12.0 9.5 78 2.0 ENE 6 7 3 4 1019.2 1018.7 0.0

Other Formats:

Comma delimited format used in spreadsheet applications
http://www.bom.gov.au/fwo/IDS60801/IDS60801.94474.axf

JavaScript Object Notation format (JSON) in row-major order
http://www.bom.gov.au/fwo/IDS60801/IDS60801.94474.json